Time;durP1;ratioP1;P1;durP2;ratioP2;P2;SDS_P1;SDS_P2;PMS_P1;PMS_P2;Temp;Humidity;BMP_temperature;BMP_pressure;BME280_temperature;BME280_humidity;BME280_pressure;Samples;Min_cycle;Max_cycle;Signal;HPM_P1;HPM_P2
2023/05/26 00:00:38;;;;;;;17.95;3.88;;;;;;;;;;5094317;28;20024;-71
2023/05/26 00:03:04;;;;;;;13.63;3.20;;;;;;;;;;5094253;28;20026;-71
2023/05/26 00:05:30;;;;;;;20.33;3.40;;;;;;;;;;5094133;28;20391;-71
2023/05/26 00:07:56;;;;;;;16.80;3.00;;;;;;;;;;5093990;28;20039;-71
2023/05/26 00:10:22;;;;;;;14.35;2.92;;;;;;;;;;5094032;28;20070;-71
2023/05/26 00:12:48;;;;;;;16.98;3.47;;;;;;;;;;5093901;28;20035;-71
2023/05/26 00:15:14;;;;;;;18.58;3.38;;;;;;;;;;5087738;28;20024;-71
2023/05/26 00:17:40;;;;;;;20.30;3.15;;;;;;;;;;5077170;28;20467;-71
2023/05/26 00:20:07;;;;;;;14.18;3.05;;;;;;;;;;5092915;28;20028;-71
2023/05/26 00:22:34;;;;;;;19.75;4.40;;;;;;;;;;5093976;28;20016;-71
2023/05/26 00:25:00;;;;;;;24.92;4.35;;;;;;;;;;5093969;28;20050;-71
2023/05/26 00:27:26;;;;;;;15.43;3.40;;;;;;;;;;5075610;28;20040;-71
2023/05/26 00:29:52;;;;;;;17.58;4.20;;;;;;;;;;5093618;28;20020;-71
2023/05/26 00:32:18;;;;;;;20.25;3.90;;;;;;;;;;5079834;28;20063;-72
2023/05/26 00:34:44;;;;;;;13.40;3.88;;;;;;;;;;5071673;28;20549;-71
2023/05/26 00:37:11;;;;;;;17.83;3.80;;;;;;;;;;5073207;28;20123;-71
2023/05/26 00:39:37;;;;;;;18.67;3.65;;;;;;;;;;5073218;28;20027;-71
2023/05/26 00:42:03;;;;;;;17.77;3.60;;;;;;;;;;5073204;28;20059;-71
2023/05/26 00:44:28;;;;;;;13.13;3.22;;;;;;;;;;5073146;28;20040;-71
2023/05/26 00:46:54;;;;;;;17.30;3.40;;;;;;;;;;5072989;28;20104;-71
2023/05/26 00:49:21;;;;;;;14.23;3.20;;;;;;;;;;5086730;28;20029;-71
2023/05/26 00:51:47;;;;;;;25.45;4.70;;;;;;;;;;5093462;28;20073;-71
2023/05/26 00:54:13;;;;;;;15.23;3.58;;;;;;;;;;5093223;28;20016;-71
2023/05/26 00:56:42;;;;;;;18.75;3.70;;;;;;;;;;5093207;28;20028;-71
2023/05/26 00:59:10;;;;;;;17.05;3.88;;;;;;;;;;5093282;28;20363;-71
2023/05/26 01:01:35;;;;;;;15.88;3.20;;;;;;;;;;5092094;28;20028;-71
2023/05/26 01:04:01;;;;;;;12.85;2.85;;;;;;;;;;5083904;28;20036;-71
2023/05/26 01:06:27;;;;;;;11.52;3.05;;;;;;;;;;5079379;28;20028;-71
2023/05/26 01:08:53;;;;;;;17.42;3.00;;;;;;;;;;5092933;28;20110;-71
2023/05/26 01:11:22;;;;;;;15.80;3.03;;;;;;;;;;5081511;28;20107;-71
2023/05/26 01:13:52;;;;;;;13.55;2.97;;;;;;;;;;5072694;28;20024;-71
2023/05/26 01:16:21;;;;;;;16.20;3.55;;;;;;;;;;5072949;28;20021;-71
2023/05/26 01:19:00;;;;;;;13.02;3.10;;;;;;;;;;5075223;28;20025;-71
2023/05/26 01:21:29;;;;;;;13.48;3.88;;;;;;;;;;5092864;28;20027;-71
2023/05/26 01:24:11;;;;;;;18.17;3.88;;;;;;;;;;5092793;28;20031;-71
2023/05/26 01:26:52;;;;;;;18.10;3.30;;;;;;;;;;5092815;28;20028;-71
2023/05/26 01:29:22;;;;;;;15.63;3.33;;;;;;;;;;5092674;28;20028;-71
2023/05/26 01:31:48;;;;;;;23.75;5.95;;;;;;;;;;5074419;28;20394;-71
2023/05/26 01:34:14;;;;;;;17.63;3.80;;;;;;;;;;5092509;28;20494;-71
2023/05/26 01:36:40;;;;;;;19.58;3.67;;;;;;;;;;5090633;28;20083;-71
2023/05/26 01:39:07;;;;;;;19.65;3.92;;;;;;;;;;5091745;28;20028;-71
2023/05/26 01:41:39;;;;;;;19.75;4.75;;;;;;;;;;5091748;28;20016;-71
2023/05/26 01:44:10;;;;;;;23.38;3.58;;;;;;;;;;5091712;28;20021;-71
2023/05/26 01:46:41;;;;;;;13.10;2.80;;;;;;;;;;5090375;28;20028;-71
2023/05/26 01:49:10;;;;;;;15.85;3.38;;;;;;;;;;5091633;28;20039;-71
2023/05/26 01:51:37;;;;;;;14.68;2.90;;;;;;;;;;5091624;28;20027;-71
2023/05/26 01:54:05;;;;;;;20.17;3.45;;;;;;;;;;5091562;28;20462;-71
2023/05/26 01:56:32;;;;;;;18.92;3.20;;;;;;;;;;5091490;28;20025;-72
2023/05/26 01:59:03;;;;;;;14.55;2.88;;;;;;;;;;5091409;28;20055;-71
2023/05/26 02:01:29;;;;;;;11.73;3.55;;;;;;;;;;5091485;28;20024;-71
2023/05/26 02:03:55;;;;;;;17.00;3.55;;;;;;;;;;5091788;28;20392;-71
2023/05/26 02:06:22;;;;;;;17.70;2.75;;;;;;;;;;5091381;28;20375;-71
2023/05/26 02:08:50;;;;;;;12.07;3.15;;;;;;;;;;5091358;28;20040;-71
2023/05/26 02:11:16;;;;;;;14.02;3.45;;;;;;;;;;5091592;28;20016;-71
2023/05/26 02:13:43;;;;;;;13.20;3.17;;;;;;;;;;5091265;28;20051;-71
2023/05/26 02:16:11;;;;;;;16.48;3.78;;;;;;;;;;5091525;28;20076;-71
2023/05/26 02:18:37;;;;;;;16.75;2.78;;;;;;;;;;5091581;28;20558;-71
2023/05/26 02:21:03;;;;;;;18.45;3.72;;;;;;;;;;5091235;28;20024;-71
2023/05/26 02:23:29;;;;;;;12.70;2.85;;;;;;;;;;5089413;28;20590;-71
2023/05/26 02:25:55;;;;;;;18.17;3.80;;;;;;;;;;5086950;28;20024;-71
2023/05/26 02:28:21;;;;;;;12.27;2.50;;;;;;;;;;5083158;28;20033;-71
2023/05/26 02:30:47;;;;;;;18.83;3.30;;;;;;;;;;5071030;28;20036;-71
2023/05/26 02:33:13;;;;;;;24.55;4.93;;;;;;;;;;5070843;28;20020;-71
2023/05/26 02:35:39;;;;;;;14.48;2.25;;;;;;;;;;5029685;28;1170915;-71
2023/05/26 02:38:05;;;;;;;11.82;3.22;;;;;;;;;;5072027;28;20519;-71
2023/05/26 02:40:31;;;;;;;16.52;2.75;;;;;;;;;;5074134;28;20028;-71
2023/05/26 02:42:57;;;;;;;18.70;3.28;;;;;;;;;;5091889;28;20028;-71
2023/05/26 02:45:23;;;;;;;16.13;2.78;;;;;;;;;;5091727;28;20028;-71
2023/05/26 02:47:49;;;;;;;18.20;2.72;;;;;;;;;;5091563;28;20031;-71
2023/05/26 02:50:17;;;;;;;13.23;2.92;;;;;;;;;;5091888;28;20029;-71
2023/05/26 02:52:43;;;;;;;13.00;3.53;;;;;;;;;;5092089;28;20153;-71
2023/05/26 02:55:11;;;;;;;17.15;3.20;;;;;;;;;;5091796;28;20107;-71
2023/05/26 02:57:39;;;;;;;16.80;3.10;;;;;;;;;;5089382;28;20391;-71
2023/05/26 03:00:12;;;;;;;23.60;4.28;;;;;;;;;;5075445;28;20066;-71
2023/05/26 03:02:38;;;;;;;19.20;3.20;;;;;;;;;;5075125;28;20020;-71
2023/05/26 03:05:05;;;;;;;11.13;2.80;;;;;;;;;;5075024;28;20074;-71
2023/05/26 03:07:31;;;;;;;17.60;3.28;;;;;;;;;;5075581;28;20060;-71
2023/05/26 03:09:57;;;;;;;17.98;3.83;;;;;;;;;;5095294;28;20310;-71
2023/05/26 03:12:23;;;;;;;16.40;3.22;;;;;;;;;;5088892;28;20383;-71
2023/05/26 03:14:50;;;;;;;18.73;3.15;;;;;;;;;;5082073;28;20467;-71
2023/05/26 03:17:16;;;;;;;17.75;3.08;;;;;;;;;;5090287;28;20020;-71
2023/05/26 03:19:42;;;;;;;12.25;3.17;;;;;;;;;;5094854;28;20367;-71
2023/05/26 03:22:08;;;;;;;17.95;3.78;;;;;;;;;;5074576;28;20100;-71
2023/05/26 03:24:35;;;;;;;18.25;3.83;;;;;;;;;;5075102;28;20028;-71
2023/05/26 03:27:01;;;;;;;20.50;4.85;;;;;;;;;;5074883;28;20028;-72
2023/05/26 03:29:29;;;;;;;13.15;3.33;;;;;;;;;;5085154;28;20035;-72
2023/05/26 03:31:55;;;;;;;12.23;2.90;;;;;;;;;;5094873;28;20113;-72
2023/05/26 03:34:21;;;;;;;14.82;3.45;;;;;;;;;;5094820;28;20024;-72
2023/05/26 03:36:54;;;;;;;14.50;3.45;;;;;;;;;;5093462;28;20106;-72
2023/05/26 03:39:24;;;;;;;19.55;3.20;;;;;;;;;;5076462;28;20032;-72
2023/05/26 03:41:50;;;;;;;15.57;2.45;;;;;;;;;;5094671;28;20020;-72
2023/05/26 03:44:21;;;;;;;16.13;3.05;;;;;;;;;;5094855;28;20016;-72
2023/05/26 03:46:47;;;;;;;19.77;2.95;;;;;;;;;;5082284;28;20407;-72
2023/05/26 03:49:13;;;;;;;17.17;3.30;;;;;;;;;;5074233;28;20498;-72
2023/05/26 03:51:39;;;;;;;18.63;3.03;;;;;;;;;;5080761;28;20091;-72
2023/05/26 03:54:05;;;;;;;12.57;2.72;;;;;;;;;;5094752;28;20032;-72
2023/05/26 03:56:32;;;;;;;15.65;3.05;;;;;;;;;;5094387;28;20029;-71
2023/05/26 03:58:58;;;;;;;20.10;2.92;;;;;;;;;;5094641;28;20038;-72
2023/05/26 04:01:25;;;;;;;18.52;3.42;;;;;;;;;;5094528;28;20635;-72
2023/05/26 04:03:51;;;;;;;12.10;3.15;;;;;;;;;;5094249;28;20020;-72
2023/05/26 04:06:17;;;;;;;18.48;3.17;;;;;;;;;;5094147;28;20024;-72
2023/05/26 04:08:43;;;;;;;9.43;2.83;;;;;;;;;;5093983;28;20035;-72
2023/05/26 04:11:09;;;;;;;19.15;3.30;;;;;;;;;;5093257;28;20028;-72
2023/05/26 04:13:38;;;;;;;18.58;3.60;;;;;;;;;;5088181;28;20073;-72
2023/05/26 04:16:04;;;;;;;15.32;3.03;;;;;;;;;;5089470;28;20027;-72
2023/05/26 04:18:31;;;;;;;14.55;3.13;;;;;;;;;;5079998;28;20024;-72
2023/05/26 04:20:57;;;;;;;14.50;3.42;;;;;;;;;;5094268;28;20035;-72
2023/05/26 04:23:23;;;;;;;19.92;2.95;;;;;;;;;;5094328;28;20161;-72
2023/05/26 04:25:50;;;;;;;17.05;4.15;;;;;;;;;;5093716;28;20028;-71
2023/05/26 04:28:15;;;;;;;16.95;3.15;;;;;;;;;;5093594;28;20032;-71
2023/05/26 04:30:42;;;;;;;17.33;3.03;;;;;;;;;;5073624;28;20032;-72
2023/05/26 04:33:09;;;;;;;16.25;4.38;;;;;;;;;;5073503;28;20040;-72
2023/05/26 04:35:44;;;;;;;14.15;2.72;;;;;;;;;;5071323;28;20100;-72
2023/05/26 04:38:17;;;;;;;13.75;3.50;;;;;;;;;;5093262;28;20035;-72
2023/05/26 04:40:44;;;;;;;15.18;3.78;;;;;;;;;;5093741;28;20467;-72
2023/05/26 04:43:11;;;;;;;21.63;4.15;;;;;;;;;;5093434;28;20024;-72
2023/05/26 04:45:37;;;;;;;14.02;3.00;;;;;;;;;;5093543;28;20027;-72
2023/05/26 04:48:05;;;;;;;16.27;3.97;;;;;;;;;;5093474;28;20024;-72
2023/05/26 04:50:32;;;;;;;14.45;3.40;;;;;;;;;;5093532;28;20024;-72
2023/05/26 04:52:58;;;;;;;12.77;3.40;;;;;;;;;;5093278;28;20035;-72
2023/05/26 04:55:25;;;;;;;12.75;3.15;;;;;;;;;;5093271;28;20025;-72
2023/05/26 04:57:51;;;;;;;17.27;2.90;;;;;;;;;;5093134;28;20028;-72
2023/05/26 05:00:17;;;;;;;17.67;3.50;;;;;;;;;;5093095;28;20470;-72
2023/05/26 05:02:43;;;;;;;16.20;3.78;;;;;;;;;;5092945;28;20028;-72
2023/05/26 05:05:10;;;;;;;13.65;2.83;;;;;;;;;;5092946;28;20482;-73
2023/05/26 05:07:36;;;;;;;12.30;3.50;;;;;;;;;;5093095;28;20493;-72
2023/05/26 05:10:02;;;;;;;12.25;3.10;;;;;;;;;;5092850;28;20060;-72
2023/05/26 05:12:28;;;;;;;17.92;3.00;;;;;;;;;;5085196;28;20035;-73
2023/05/26 05:14:54;;;;;;;15.07;2.45;;;;;;;;;;5085994;28;20028;-72
2023/05/26 05:17:20;;;;;;;15.63;2.88;;;;;;;;;;5076960;28;20025;-72
2023/05/26 05:19:46;;;;;;;17.98;4.68;;;;;;;;;;5073272;28;20021;-72
2023/05/26 05:22:13;;;;;;;15.73;3.30;;;;;;;;;;5092606;28;20486;-73
2023/05/26 05:24:39;;;;;;;13.07;2.72;;;;;;;;;;5092750;28;20046;-73
2023/05/26 05:27:05;;;;;;;14.60;2.90;;;;;;;;;;5092543;28;20027;-73
2023/05/26 05:29:31;;;;;;;19.95;3.45;;;;;;;;;;5082153;28;20103;-73
2023/05/26 05:31:57;;;;;;;14.98;2.70;;;;;;;;;;5072459;28;20056;-73
2023/05/26 05:34:23;;;;;;;14.07;3.25;;;;;;;;;;5072361;28;20063;-73
2023/05/26 05:36:49;;;;;;;14.63;4.50;;;;;;;;;;5070997;28;20052;-73
2023/05/26 05:39:15;;;;;;;17.63;3.42;;;;;;;;;;5080814;28;20438;-73
2023/05/26 05:41:41;;;;;;;12.60;3.22;;;;;;;;;;5092540;28;20028;-74
2023/05/26 05:44:07;;;;;;;15.35;3.40;;;;;;;;;;5092475;28;20056;-73
2023/05/26 05:46:33;;;;;;;12.00;2.30;;;;;;;;;;5092329;28;20020;-74
2023/05/26 05:48:59;;;;;;;12.32;3.13;;;;;;;;;;5092617;28;20032;-75
2023/05/26 05:51:25;;;;;;;14.68;3.17;;;;;;;;;;5092553;28;20474;-74
2023/05/26 05:53:50;;;;;;;9.50;2.13;;;;;;;;;;5092406;28;20020;-75
2023/05/26 05:56:17;;;;;;;11.38;2.75;;;;;;;;;;5092357;28;20048;-74
2023/05/26 05:58:42;;;;;;;17.40;3.25;;;;;;;;;;5092718;28;20020;-75
2023/05/26 06:01:13;;;;;;;14.48;2.88;;;;;;;;;;5074208;28;20024;-74
2023/05/26 06:03:38;;;;;;;;;;;;;;;;;;5106889;28;20032;-73
2023/05/26 06:06:05;;;;;;;14.70;2.53;;;;;;;;;;5112633;28;19910;-74
2023/05/26 06:08:31;;;;;;;13.90;3.15;;;;;;;;;;5094131;28;20097;-74
2023/05/26 06:10:57;;;;;;;10.45;2.33;;;;;;;;;;5112381;28;20421;-74
2023/05/26 06:13:23;;;;;;;14.88;2.72;;;;;;;;;;5094280;28;20020;-74
2023/05/26 06:15:49;;;;;;;10.88;2.53;;;;;;;;;;5112928;28;20031;-74
2023/05/26 06:18:15;;;;;;;7.18;1.75;;;;;;;;;;5109181;28;20402;-74
2023/05/26 06:20:41;;;;;;;8.18;2.20;;;;;;;;;;5087672;28;20028;-74
2023/05/26 06:23:07;;;;;;;5.35;1.98;;;;;;;;;;5053650;28;20387;-74
2023/05/26 06:25:33;;;;;;;7.78;2.10;;;;;;;;;;5087349;28;20031;-75
2023/05/26 06:27:59;;;;;;;10.23;2.55;;;;;;;;;;5092005;28;20131;-74
2023/05/26 06:30:25;;;;;;;14.20;2.72;;;;;;;;;;5092134;28;20036;-74
2023/05/26 06:32:51;;;;;;;9.38;2.35;;;;;;;;;;5092256;28;20490;-74
2023/05/26 06:35:17;;;;;;;10.27;3.08;;;;;;;;;;5075299;28;20029;-74
2023/05/26 06:37:43;;;;;;;12.57;2.70;;;;;;;;;;5089243;28;20393;-74
2023/05/26 06:40:09;;;;;;;11.93;2.13;;;;;;;;;;5116205;28;20055;-75
2023/05/26 06:42:35;;;;;;;6.95;2.10;;;;;;;;;;5116489;28;20355;-74
2023/05/26 06:45:02;;;;;;;10.48;1.80;;;;;;;;;;5098858;28;20459;-75
2023/05/26 06:47:28;;;;;;;10.40;3.38;;;;;;;;;;5096003;28;20020;-74
2023/05/26 06:49:54;;;;;;;9.93;2.20;;;;;;;;;;5095787;28;20031;-74
2023/05/26 06:52:20;;;;;;;12.10;2.67;;;;;;;;;;5095494;28;20016;-74
2023/05/26 06:54:46;;;;;;;5.50;1.33;;;;;;;;;;5095414;28;20729;-75
2023/05/26 06:57:13;;;;;;;10.27;2.63;;;;;;;;;;5095688;28;20028;-74
2023/05/26 06:59:39;;;;;;;13.27;2.95;;;;;;;;;;5095556;28;20123;-74
2023/05/26 07:02:05;;;;;;;5.50;2.30;;;;;;;;;;5095412;28;20024;-74
2023/05/26 07:04:31;;;;;;;7.20;2.30;;;;;;;;;;5095130;28;20032;-75
2023/05/26 07:06:57;;;;;;;8.35;1.83;;;;;;;;;;5099306;28;20054;-75
2023/05/26 07:09:23;;;;;;;7.03;1.90;;;;;;;;;;5115644;28;20031;-75
2023/05/26 07:11:49;;;;;;;6.30;1.77;;;;;;;;;;5107029;28;20362;-74
2023/05/26 07:14:15;;;;;;;9.40;2.13;;;;;;;;;;5095437;28;20025;-75
2023/05/26 07:16:41;;;;;;;8.75;2.20;;;;;;;;;;5095115;28;20432;-74
2023/05/26 07:19:07;;;;;;;10.73;2.40;;;;;;;;;;5095370;28;20028;-74
2023/05/26 07:21:37;;;;;;;6.25;1.85;;;;;;;;;;5095022;28;20103;-74
2023/05/26 07:24:03;;;;;;;8.98;3.08;;;;;;;;;;5095031;28;20028;-74
2023/05/26 07:26:29;;;;;;;6.50;2.10;;;;;;;;;;5095004;28;20036;-74
2023/05/26 07:28:55;;;;;;;9.48;3.13;;;;;;;;;;5085207;28;20081;-74
2023/05/26 07:31:21;;;;;;;12.95;2.40;;;;;;;;;;5074586;28;20025;-75
2023/05/26 07:33:47;;;;;;;12.50;2.17;;;;;;;;;;5079765;28;20039;-74
2023/05/26 07:36:13;;;;;;;9.35;2.35;;;;;;;;;;5092329;28;20135;-75
2023/05/26 07:38:39;;;;;;;10.95;2.55;;;;;;;;;;5094226;28;20031;-74
2023/05/26 07:41:06;;;;;;;7.25;1.98;;;;;;;;;;5093926;28;20079;-75
2023/05/26 07:43:31;;;;;;;11.63;2.53;;;;;;;;;;5094589;28;20610;-74
2023/05/26 07:45:59;;;;;;;6.53;1.73;;;;;;;;;;5094200;28;20023;-74
2023/05/26 07:48:25;;;;;;;5.18;1.23;;;;;;;;;;5094731;28;20026;-75
2023/05/26 07:50:51;;;;;;;7.57;2.25;;;;;;;;;;5094713;28;20118;-75
2023/05/26 07:53:18;;;;;;;10.77;2.00;;;;;;;;;;5094696;28;20454;-74
2023/05/26 07:55:44;;;;;;;6.72;1.80;;;;;;;;;;5094281;28;20443;-75
2023/05/26 07:58:10;;;;;;;5.55;1.73;;;;;;;;;;5094065;28;20476;-75
2023/05/26 08:00:36;;;;;;;4.07;1.30;;;;;;;;;;5074051;28;20056;-75
2023/05/26 08:03:02;;;;;;;10.27;2.22;;;;;;;;;;5074048;28;20056;-75
2023/05/26 08:05:28;;;;;;;5.90;2.08;;;;;;;;;;5074163;28;20352;-74
2023/05/26 08:07:55;;;;;;;10.65;2.78;;;;;;;;;;5074211;28;20028;-75
2023/05/26 08:10:21;;;;;;;9.30;2.78;;;;;;;;;;5073686;28;20033;-75
2023/05/26 08:12:47;;;;;;;12.30;2.20;;;;;;;;;;5073411;28;20647;-75
2023/05/26 08:15:14;;;;;;;9.40;2.55;;;;;;;;;;5073511;28;20028;-75
2023/05/26 08:17:41;;;;;;;8.63;2.58;;;;;;;;;;5073738;28;20028;-75
2023/05/26 08:20:07;;;;;;;6.65;2.08;;;;;;;;;;5087928;28;20353;-75
2023/05/26 08:22:33;;;;;;;9.77;2.28;;;;;;;;;;5094283;28;20032;-75
2023/05/26 08:24:59;;;;;;;5.03;1.58;;;;;;;;;;5093996;28;20032;-75
2023/05/26 08:27:25;;;;;;;12.45;2.05;;;;;;;;;;5094593;28;20635;-74
2023/05/26 08:29:51;;;;;;;12.25;2.20;;;;;;;;;;5093664;28;20032;-73
2023/05/26 08:32:17;;;;;;;7.05;2.03;;;;;;;;;;5093536;28;20356;-73
2023/05/26 08:34:45;;;;;;;7.10;1.88;;;;;;;;;;5093562;28;20028;-73
2023/05/26 08:37:11;;;;;;;11.90;2.50;;;;;;;;;;5092455;28;20052;-73
2023/05/26 08:39:37;;;;;;;10.30;2.35;;;;;;;;;;5093462;28;20354;-73
2023/05/26 08:42:08;;;;;;;7.45;2.50;;;;;;;;;;5093414;28;20016;-73
2023/05/26 08:44:35;;;;;;;5.53;1.38;;;;;;;;;;5093446;28;20052;-73
2023/05/26 08:47:02;;;;;;;12.25;2.40;;;;;;;;;;5093267;28;20406;-73
2023/05/26 08:49:31;;;;;;;11.88;2.80;;;;;;;;;;5093233;28;20032;-73
2023/05/26 08:52:07;;;;;;;8.20;2.50;;;;;;;;;;5093222;28;20028;-73
2023/05/26 08:54:33;;;;;;;5.07;1.33;;;;;;;;;;5073427;28;20269;-74
2023/05/26 08:57:00;;;;;;;8.43;1.95;;;;;;;;;;5092408;28;20028;-73
2023/05/26 08:59:28;;;;;;;8.57;2.13;;;;;;;;;;5092885;28;20059;-73
2023/05/26 09:01:54;;;;;;;11.43;3.08;;;;;;;;;;5093401;28;20027;-73
2023/05/26 09:04:20;;;;;;;8.55;2.03;;;;;;;;;;5093047;28;20028;-73
2023/05/26 09:06:46;;;;;;;11.52;2.40;;;;;;;;;;5092978;28;20035;-74
2023/05/26 09:09:14;;;;;;;5.28;1.83;;;;;;;;;;5093241;28;20055;-74
2023/05/26 09:11:46;;;;;;;5.63;1.42;;;;;;;;;;5092913;28;20630;-74
2023/05/26 09:14:20;;;;;;;7.93;1.85;;;;;;;;;;5092860;28;20039;-75
2023/05/26 09:16:46;;;;;;;9.38;1.88;;;;;;;;;;5093003;28;20081;-75
2023/05/26 09:19:14;;;;;;;9.60;2.58;;;;;;;;;;5092777;28;20358;-74
2023/05/26 09:21:44;;;;;;;7.97;2.45;;;;;;;;;;5092575;28;20028;-74
2023/05/26 09:24:10;;;;;;;10.15;2.10;;;;;;;;;;5092568;28;20351;-75
2023/05/26 09:26:38;;;;;;;6.90;1.45;;;;;;;;;;5092303;28;20451;-75
2023/05/26 09:29:05;;;;;;;11.52;1.90;;;;;;;;;;5091040;28;20471;-75
2023/05/26 09:31:40;;;;;;;6.60;2.00;;;;;;;;;;5072638;28;20021;-75
2023/05/26 09:34:07;;;;;;;6.10;2.00;;;;;;;;;;5054391;28;20048;-75
2023/05/26 09:36:36;;;;;;;6.78;2.38;;;;;;;;;;5072413;28;20049;-75
2023/05/26 09:39:02;;;;;;;9.90;2.28;;;;;;;;;;5072746;28;20029;-74
2023/05/26 09:41:41;;;;;;;7.95;2.00;;;;;;;;;;5072444;28;20023;-75
2023/05/26 09:44:07;;;;;;;8.40;2.45;;;;;;;;;;5072319;28;20017;-75
2023/05/26 09:46:35;;;;;;;9.25;2.78;;;;;;;;;;5072407;28;20021;-75
2023/05/26 09:49:02;;;;;;;11.35;2.42;;;;;;;;;;5080701;28;20028;-75
2023/05/26 09:51:31;;;;;;;5.65;1.70;;;;;;;;;;5092606;28;20035;-75
2023/05/26 09:53:57;;;;;;;8.63;2.50;;;;;;;;;;5092529;28;20110;-75
2023/05/26 09:56:25;;;;;;;10.40;2.58;;;;;;;;;;5092307;28;20506;-75
2023/05/26 09:58:53;;;;;;;11.13;3.10;;;;;;;;;;5092387;28;20111;-75
2023/05/26 10:01:21;;;;;;;9.80;2.10;;;;;;;;;;5092322;28;20070;-75
2023/05/26 10:03:47;;;;;;;8.32;2.33;;;;;;;;;;5092352;28;20020;-75
2023/05/26 10:06:16;;;;;;;7.78;1.75;;;;;;;;;;5092158;28;20020;-75
2023/05/26 10:08:44;;;;;;;8.43;2.08;;;;;;;;;;5094040;28;20028;-74
2023/05/26 10:11:10;;;;;;;6.35;1.88;;;;;;;;;;5101035;28;20028;-74
2023/05/26 10:13:36;;;;;;;8.75;1.80;;;;;;;;;;5077962;28;20538;-75
2023/05/26 10:16:03;;;;;;;10.70;2.63;;;;;;;;;;5096007;28;20527;-74
2023/05/26 10:18:29;;;;;;;8.50;2.30;;;;;;;;;;5096091;28;20474;-75
2023/05/26 10:20:56;;;;;;;8.07;1.90;;;;;;;;;;5096123;28;20077;-75
2023/05/26 10:23:24;;;;;;;4.75;1.60;;;;;;;;;;5096201;28;20025;-75
2023/05/26 10:26:13;;;;;;;8.50;2.88;;;;;;;;;;5095671;28;20107;-75
2023/05/26 10:28:51;;;;;;;5.15;1.77;;;;;;;;;;5095993;28;20040;-75
2023/05/26 10:31:30;;;;;;;8.02;1.98;;;;;;;;;;5095991;28;20068;-75
2023/05/26 10:33:57;;;;;;;12.05;2.20;;;;;;;;;;5086479;28;20021;-75
2023/05/26 10:36:23;;;;;;;6.63;2.25;;;;;;;;;;5075246;28;20056;-75
2023/05/26 10:38:52;;;;;;;10.57;2.67;;;;;;;;;;5093933;28;20111;-74
2023/05/26 10:41:31;;;;;;;9.40;2.42;;;;;;;;;;5095736;28;20020;-75
2023/05/26 10:43:57;;;;;;;7.50;2.20;;;;;;;;;;5096058;28;20108;-75
2023/05/26 10:46:35;;;;;;;7.00;2.42;;;;;;;;;;5095704;28;20489;-75
2023/05/26 10:49:01;;;;;;;12.18;2.85;;;;;;;;;;5095487;28;20036;-75
2023/05/26 10:51:27;;;;;;;10.82;2.30;;;;;;;;;;5095532;28;20039;-75
2023/05/26 10:53:56;;;;;;;5.10;1.95;;;;;;;;;;5095489;28;20020;-75
2023/05/26 10:56:25;;;;;;;8.20;2.35;;;;;;;;;;5095825;28;20027;-75
2023/05/26 10:58:56;;;;;;;9.02;2.70;;;;;;;;;;5095610;28;20074;-75
2023/05/26 11:01:27;;;;;;;8.27;2.05;;;;;;;;;;5095555;28;20028;-74
2023/05/26 11:04:14;;;;;;;4.97;1.88;;;;;;;;;;5088300;28;20067;-75
2023/05/26 11:06:45;;;;;;;5.60;2.08;;;;;;;;;;5075191;28;20107;-75
2023/05/26 11:09:12;;;;;;;6.85;1.92;;;;;;;;;;5075229;28;20028;-75
2023/05/26 11:11:48;;;;;;;9.75;2.08;;;;;;;;;;5075019;28;20030;-75
2023/05/26 11:14:15;;;;;;;10.15;2.45;;;;;;;;;;5094200;28;20063;-75
2023/05/26 11:16:45;;;;;;;11.18;3.20;;;;;;;;;;5095193;28;20091;-74
2023/05/26 11:19:11;;;;;;;10.45;2.70;;;;;;;;;;5094668;28;20020;-74
2023/05/26 11:21:37;;;;;;;8.95;2.22;;;;;;;;;;5095037;28;20532;-75
2023/05/26 11:24:04;;;;;;;9.85;2.00;;;;;;;;;;5095000;28;20024;-75
2023/05/26 11:26:31;;;;;;;5.85;2.60;;;;;;;;;;5095018;28;20486;-75
2023/05/26 11:28:57;;;;;;;12.63;2.63;;;;;;;;;;5094748;28;20028;-75
2023/05/26 11:31:27;;;;;;;7.72;2.03;;;;;;;;;;5093678;28;20085;-75
2023/05/26 11:33:54;;;;;;;13.75;3.00;;;;;;;;;;5094843;28;20039;-75
2023/05/26 11:36:20;;;;;;;9.48;2.53;;;;;;;;;;5092981;28;20067;-75
2023/05/26 11:38:59;;;;;;;7.53;1.90;;;;;;;;;;5094804;28;20031;-75
2023/05/26 11:41:26;;;;;;;9.90;2.05;;;;;;;;;;5074284;28;20021;-75
2023/05/26 11:43:56;;;;;;;6.72;2.22;;;;;;;;;;5074077;28;20467;-75
2023/05/26 11:46:22;;;;;;;12.30;3.00;;;;;;;;;;5074402;28;20056;-75
2023/05/26 11:48:49;;;;;;;17.63;3.13;;;;;;;;;;5087226;28;20077;-75
2023/05/26 11:51:19;;;;;;;10.32;3.20;;;;;;;;;;5094138;28;20077;-75
2023/05/26 11:53:46;;;;;;;7.40;2.15;;;;;;;;;;5094527;28;20466;-75
2023/05/26 11:56:13;;;;;;;11.95;2.70;;;;;;;;;;5094242;28;20481;-75
2023/05/26 11:58:39;;;;;;;9.70;2.78;;;;;;;;;;5094174;28;20020;-75
2023/05/26 12:01:06;;;;;;;4.55;2.08;;;;;;;;;;5094391;28;20062;-75
2023/05/26 12:03:36;;;;;;;9.48;2.55;;;;;;;;;;5094128;28;20020;-75
2023/05/26 12:06:15;;;;;;;14.32;2.22;;;;;;;;;;5094093;28;20517;-75
2023/05/26 12:08:45;;;;;;;4.93;2.08;;;;;;;;;;5075811;28;20075;-75
2023/05/26 12:11:15;;;;;;;10.50;2.83;;;;;;;;;;5094152;28;20030;-75
2023/05/26 12:13:41;;;;;;;15.52;2.65;;;;;;;;;;5094060;28;20099;-75
2023/05/26 12:16:20;;;;;;;11.80;2.15;;;;;;;;;;5093971;28;20103;-75
2023/05/26 12:18:46;;;;;;;14.45;2.25;;;;;;;;;;5093924;28;20034;-75
2023/05/26 12:21:12;;;;;;;9.80;2.30;;;;;;;;;;5093835;28;20437;-75
2023/05/26 12:23:38;;;;;;;12.35;3.17;;;;;;;;;;5093778;28;20020;-75
2023/05/26 12:26:34;;;;;;;12.93;3.40;;;;;;;;;;5093772;28;20024;-75
2023/05/26 12:29:10;;;;;;;6.38;2.08;;;;;;;;;;5076251;28;20441;-76
2023/05/26 12:31:37;;;;;;;11.57;2.15;;;;;;;;;;5092868;28;20031;-76
2023/05/26 12:34:03;;;;;;;13.80;2.85;;;;;;;;;;5093656;28;20023;-75
2023/05/26 12:36:29;;;;;;;10.90;2.60;;;;;;;;;;5071603;28;20044;-75
2023/05/26 12:38:55;;;;;;;7.90;2.38;;;;;;;;;;5073329;28;20036;-76
2023/05/26 12:41:21;;;;;;;7.45;2.20;;;;;;;;;;5071752;28;20025;-76
2023/05/26 12:43:47;;;;;;;11.07;2.60;;;;;;;;;;5073264;28;20428;-76
2023/05/26 12:46:13;;;;;;;5.90;1.83;;;;;;;;;;5071711;28;20032;-76
2023/05/26 12:48:39;;;;;;;7.45;2.22;;;;;;;;;;5073017;28;20348;-76
2023/05/26 12:51:05;;;;;;;5.60;2.13;;;;;;;;;;5073082;28;20036;-76
2023/05/26 12:53:31;;;;;;;7.78;2.55;;;;;;;;;;5072867;28;20020;-76
2023/05/26 12:55:57;;;;;;;13.48;2.58;;;;;;;;;;5072927;28;20487;-76
2023/05/26 12:58:23;;;;;;;10.43;2.13;;;;;;;;;;5072835;28;20414;-76
2023/05/26 13:00:49;;;;;;;10.18;2.17;;;;;;;;;;5072869;28;20024;-76
2023/05/26 13:03:16;;;;;;;6.43;2.00;;;;;;;;;;5071555;28;20462;-76
2023/05/26 13:05:43;;;;;;;10.57;3.47;;;;;;;;;;5072877;28;20065;-76
2023/05/26 13:08:09;;;;;;;6.53;2.40;;;;;;;;;;5072735;28;20178;-76
2023/05/26 13:10:35;;;;;;;12.27;2.95;;;;;;;;;;5072862;28;20039;-76
2023/05/26 13:13:01;;;;;;;10.80;2.33;;;;;;;;;;5072988;28;20028;-76
2023/05/26 13:15:27;;;;;;;7.30;2.08;;;;;;;;;;5072728;28;20448;-76
2023/05/26 13:17:53;;;;;;;10.13;2.20;;;;;;;;;;5070054;28;20032;-76
2023/05/26 13:20:19;;;;;;;8.80;2.05;;;;;;;;;;5052826;28;20078;-76
2023/05/26 13:22:45;;;;;;;7.05;2.47;;;;;;;;;;5052542;28;20036;-76
2023/05/26 13:25:15;;;;;;;8.90;2.25;;;;;;;;;;5051320;28;20402;-76
2023/05/26 13:27:41;;;;;;;10.93;3.40;;;;;;;;;;5052513;28;20434;-76
2023/05/26 13:30:07;;;;;;;8.68;2.08;;;;;;;;;;5052559;28;20086;-76
2023/05/26 13:32:33;;;;;;;6.95;2.20;;;;;;;;;;5052507;28;20038;-76
2023/05/26 13:34:59;;;;;;;8.90;2.60;;;;;;;;;;5052470;28;20017;-76
2023/05/26 13:37:26;;;;;;;11.63;2.70;;;;;;;;;;5066101;28;20087;-75
2023/05/26 13:39:52;;;;;;;8.25;1.95;;;;;;;;;;5072646;28;20060;-76
2023/05/26 13:42:17;;;;;;;7.70;1.90;;;;;;;;;;5072309;28;20416;-75
2023/05/26 13:44:43;;;;;;;14.90;2.65;;;;;;;;;;5072396;28;20035;-75
2023/05/26 13:47:09;;;;;;;8.30;2.17;;;;;;;;;;5073299;28;20103;-74
2023/05/26 13:49:35;;;;;;;10.68;2.50;;;;;;;;;;5092735;28;20106;-75
2023/05/26 13:52:04;;;;;;;7.75;2.47;;;;;;;;;;5092483;28;20100;-74
2023/05/26 13:54:30;;;;;;;7.65;2.10;;;;;;;;;;5092544;28;20024;-75
2023/05/26 13:56:56;;;;;;;9.65;2.38;;;;;;;;;;5092306;28;20194;-74
2023/05/26 13:59:23;;;;;;;10.88;2.72;;;;;;;;;;5092192;28;20028;-74
2023/05/26 14:01:49;;;;;;;6.65;2.17;;;;;;;;;;5092264;28;20158;-74
2023/05/26 14:04:15;;;;;;;6.03;2.35;;;;;;;;;;5092286;28;20020;-74
2023/05/26 14:06:43;;;;;;;7.90;2.22;;;;;;;;;;5092214;28;20024;-74
2023/05/26 14:09:10;;;;;;;10.13;2.85;;;;;;;;;;5072050;28;20033;-74
2023/05/26 14:11:39;;;;;;;10.38;2.63;;;;;;;;;;5072454;28;20031;-74
2023/05/26 14:14:05;;;;;;;8.15;2.22;;;;;;;;;;5072412;28;20028;-75
2023/05/26 14:16:31;;;;;;;10.55;2.15;;;;;;;;;;5072021;28;20031;-74
2023/05/26 14:18:57;;;;;;;11.23;2.40;;;;;;;;;;5072042;28;20421;-75
2023/05/26 14:21:23;;;;;;;10.63;2.10;;;;;;;;;;5071950;28;20032;-75
2023/05/26 14:23:49;;;;;;;9.05;3.08;;;;;;;;;;5071937;28;20060;-75
2023/05/26 14:26:15;;;;;;;12.25;2.58;;;;;;;;;;5071857;28;20021;-75
2023/05/26 14:28:42;;;;;;;8.07;2.30;;;;;;;;;;5072066;28;20551;-75
2023/05/26 14:31:08;;;;;;;9.80;2.58;;;;;;;;;;5072105;28;20056;-75
2023/05/26 14:33:34;;;;;;;8.13;2.47;;;;;;;;;;5071869;28;20056;-75
2023/05/26 14:36:00;;;;;;;8.63;2.33;;;;;;;;;;5070697;28;20085;-75